Time;durP1;ratioP1;P1;durP2;ratioP2;P2;SDS_P1;SDS_P2;PMS_P1;PMS_P2;Temp;Humidity;BMP_temperature;BMP_pressure;BME280_temperature;BME280_humidity;BME280_pressure;Samples;Min_cycle;Max_cycle;Signal;HPM_P1;HPM_P2
2023/05/28 00:00:17;;;;;;;3.83;1.92;;;18.60;43.60;;;;;;2553684;53;20956;-66
2023/05/28 00:02:44;;;;;;;4.47;2.17;;;18.50;43.50;;;;;;2554382;53;20952;-68
2023/05/28 00:05:10;;;;;;;4.37;2.08;;;18.50;43.60;;;;;;2314824;54;20950;-68
2023/05/28 00:07:39;;;;;;;4.47;1.98;;;18.40;43.60;;;;;;2314685;54;21023;-68
2023/05/28 00:10:05;;;;;;;4.55;1.80;;;18.40;43.70;;;;;;2312731;54;20961;-68
2023/05/28 00:12:32;;;;;;;4.43;1.77;;;18.40;43.90;;;;;;2313760;54;20975;-68
2023/05/28 00:14:59;;;;;;;3.87;1.73;;;18.30;43.90;;;;;;2554259;53;20963;-68
2023/05/28 00:17:26;;;;;;;4.00;1.75;;;18.30;43.90;;;;;;2311004;53;20949;-69
2023/05/28 00:19:52;;;;;;;3.35;1.27;;;18.30;43.90;;;;;;2313827;54;21058;-69
2023/05/28 00:22:19;;;;;;;3.92;1.65;;;18.20;43.80;;;;;;2314729;54;20978;-68
2023/05/28 00:24:47;;;;;;;3.58;1.48;;;18.20;44.00;;;;;;2554342;53;21725;-69
2023/05/28 00:27:14;;;;;;;3.20;1.50;;;18.20;44.00;;;;;;2315063;54;21675;-67
2023/05/28 00:29:40;;;;;;;3.70;1.50;;;18.10;43.90;;;;;;2553653;53;20983;-70
2023/05/28 00:32:08;;;;;;;4.05;1.50;;;18.10;43.90;;;;;;2314451;54;21011;-72
2023/05/28 00:34:34;;;;;;;3.30;1.45;;;18.10;43.90;;;;;;2552317;54;20926;-68
2023/05/28 00:37:02;;;;;;;4.20;1.62;;;18.00;43.90;;;;;;2551990;53;21024;-73
2023/05/28 00:39:28;;;;;;;4.62;1.80;;;17.90;43.90;;;;;;2554788;54;22481;-68
2023/05/28 00:42:07;;;;;;;5.05;2.20;;;17.90;44.00;;;;;;2314918;54;20983;-68
2023/05/28 00:44:34;;;;;;;3.53;1.73;;;17.90;44.30;;;;;;2554174;53;21035;-68
2023/05/28 00:47:00;;;;;;;3.65;1.80;;;17.80;44.10;;;;;;2315159;54;20971;-67
2023/05/28 00:49:27;;;;;;;5.07;2.30;;;17.80;44.20;;;;;;2554576;53;20951;-72
2023/05/28 00:51:55;;;;;;;6.18;2.75;;;17.70;44.10;;;;;;2554694;54;20982;-69
2023/05/28 00:54:22;;;;;;;5.37;2.15;;;17.70;44.50;;;;;;2554974;53;20951;-68
2023/05/28 00:56:57;;;;;;;3.50;1.75;;;17.70;44.70;;;;;;2305608;54;22488;-67
2023/05/28 00:59:25;;;;;;;5.22;2.10;;;17.70;44.70;;;;;;2535907;53;20962;-68
2023/05/28 01:01:51;;;;;;;6.37;1.90;;;17.60;44.60;;;;;;2553175;54;20954;-68
2023/05/28 01:04:18;;;;;;;4.78;2.30;;;17.60;44.60;;;;;;2554812;53;20943;-70
2023/05/28 01:06:45;;;;;;;4.82;2.20;;;17.50;44.70;;;;;;2313124;54;20960;-70
2023/05/28 01:09:13;;;;;;;4.75;1.87;;;17.50;44.80;;;;;;2554529;54;21686;-68
2023/05/28 01:11:42;;;;;;;3.12;1.40;;;17.50;44.80;;;;;;2313672;54;21275;-67
2023/05/28 01:14:08;;;;;;;4.03;1.67;;;17.50;44.70;;;;;;2315278;54;20944;-70
2023/05/28 01:16:35;;;;;;;3.35;1.50;;;17.50;44.80;;;;;;2314371;54;21078;-68
2023/05/28 01:19:01;;;;;;;3.50;1.25;;;17.40;45.30;;;;;;2314220;54;20994;-69
2023/05/28 01:21:28;;;;;;;5.43;1.35;;;17.40;44.80;;;;;;2554280;53;20975;-70
2023/05/28 01:23:54;;;;;;;5.05;1.60;;;17.40;44.80;;;;;;2309044;53;20975;-68
2023/05/28 01:26:21;;;;;;;3.70;1.48;;;17.40;44.90;;;;;;2314495;54;20964;-68
2023/05/28 01:28:48;;;;;;;3.85;1.50;;;17.30;44.90;;;;;;2315425;54;20953;-68
2023/05/28 01:31:15;;;;;;;3.90;1.60;;;17.30;45.00;;;;;;2311251;53;21022;-67
2023/05/28 01:33:42;;;;;;;3.05;1.50;;;17.30;45.00;;;;;;2313414;54;20935;-70
2023/05/28 01:36:56;;;;;;;3.10;1.35;;;17.20;45.00;;;;;;2313866;54;20923;-67
2023/05/28 01:39:24;;;;;;;4.57;1.65;;;17.20;45.10;;;;;;2314311;54;21034;-68
2023/05/28 01:41:50;;;;;;;3.85;1.65;;;17.20;45.00;;;;;;2313198;54;20994;-69
2023/05/28 01:44:18;;;;;;;3.10;1.25;;;17.10;44.90;;;;;;2554914;53;20990;-70
2023/05/28 01:46:46;;;;;;;3.53;1.62;;;17.10;45.00;;;;;;2313746;54;20927;-67
2023/05/28 01:49:13;;;;;;;3.37;1.67;;;17.10;45.10;;;;;;2313266;54;21073;-68
2023/05/28 01:51:39;;;;;;;4.07;1.70;;;17.10;45.20;;;;;;2312032;54;21003;-69
2023/05/28 01:54:06;;;;;;;5.45;1.73;;;17.00;45.10;;;;;;2313561;54;21023;-67
2023/05/28 01:56:32;;;;;;;3.72;1.60;;;17.00;45.20;;;;;;2553434;54;21495;-69
2023/05/28 01:58:59;;;;;;;3.47;1.90;;;17.00;45.30;;;;;;2314510;54;20982;-72
2023/05/28 02:01:28;;;;;;;5.20;1.95;;;16.90;45.40;;;;;;2546078;53;21490;-66
2023/05/28 02:03:56;;;;;;;3.90;1.80;;;16.90;45.50;;;;;;2541443;53;21613;-67
2023/05/28 02:06:23;;;;;;;4.78;1.80;;;16.90;45.50;;;;;;2314356;54;20939;-68
2023/05/28 02:08:49;;;;;;;3.90;1.70;;;16.80;45.40;;;;;;2553463;53;20975;-67
2023/05/28 02:11:16;;;;;;;4.87;2.17;;;16.80;45.40;;;;;;2554192;53;21477;-68
2023/05/28 02:13:43;;;;;;;3.72;1.60;;;16.80;45.40;;;;;;2553860;54;20923;-67
2023/05/28 02:16:27;;;;;;;;;;;;;;;;;;;;;
2023/05/28 02:18:54;;;;;;;3.30;1.62;;;16.70;45.50;;;;;;2551353;53;20995;-70
2023/05/28 02:21:20;;;;;;;3.72;1.50;;;16.70;45.50;;;;;;2555120;53;21754;-68
2023/05/28 02:23:48;;;;;;;6.10;2.10;;;16.80;45.60;;;;;;2313790;54;20932;-70
2023/05/28 02:26:15;;;;;;;4.20;2.05;;;16.60;45.50;;;;;;2554819;54;21552;-69
2023/05/28 02:28:45;;;;;;;4.40;2.10;;;16.60;45.60;;;;;;2313990;54;20979;-67
2023/05/28 02:31:11;;;;;;;4.62;1.98;;;16.60;45.80;;;;;;2553710;53;21019;-67
2023/05/28 02:33:44;;;;;;;3.17;1.62;;;16.60;45.90;;;;;;2313528;54;21037;-67
2023/05/28 02:36:12;;;;;;;;;;;16.60;45.90;;;;;;2558441;53;20938;-67
2023/05/28 02:38:40;;;;;;;3.30;1.65;;;16.60;46.10;;;;;;2553839;53;20124;-68
2023/05/28 02:41:07;;;;;;;5.32;1.85;;;16.50;45.60;;;;;;2554746;53;20963;-67
2023/05/28 02:43:33;;;;;;;3.75;1.60;;;16.50;45.70;;;;;;2313699;54;20933;-67
2023/05/28 02:46:00;;;;;;;5.82;2.17;;;16.50;45.90;;;;;;2554179;53;20995;-70
2023/05/28 02:48:27;;;;;;;4.97;1.80;;;16.40;45.90;;;;;;2314356;54;21826;-70
2023/05/28 02:50:53;;;;;;;3.37;1.30;;;16.40;46.00;;;;;;2553831;53;20963;-70
2023/05/28 02:53:20;;;;;;;3.97;1.65;;;16.40;46.00;;;;;;2315382;54;20955;-70
2023/05/28 02:55:46;;;;;;;3.40;1.50;;;16.30;46.00;;;;;;2312190;54;20999;-68
2023/05/28 02:58:13;;;;;;;3.35;1.40;;;16.30;46.00;;;;;;2313961;54;20963;-67
2023/05/28 03:00:40;;;;;;;3.75;1.73;;;16.30;45.90;;;;;;2314139;54;21003;-67
2023/05/28 03:03:07;;;;;;;4.10;1.70;;;16.20;46.00;;;;;;2317133;54;20951;-67
2023/05/28 03:05:33;;;;;;;4.47;2.03;;;16.20;46.20;;;;;;2310454;53;20950;-67
2023/05/28 03:07:59;;;;;;;4.30;1.62;;;16.20;46.30;;;;;;2313159;54;20956;-67
2023/05/28 03:10:26;;;;;;;5.07;1.83;;;16.10;46.30;;;;;;2314142;54;20967;-67
2023/05/28 03:12:52;;;;;;;3.42;1.80;;;16.10;46.30;;;;;;2314298;54;21003;-67
2023/05/28 03:15:19;;;;;;;3.70;1.85;;;16.10;46.50;;;;;;2553126;53;20993;-68
2023/05/28 03:17:46;;;;;;;3.45;1.50;;;16.10;46.60;;;;;;2549178;53;21968;-68
2023/05/28 03:20:12;;;;;;;4.47;1.80;;;16.00;46.40;;;;;;2555056;53;21486;-68
2023/05/28 03:22:40;;;;;;;3.85;1.98;;;16.00;46.50;;;;;;2314342;54;21078;-69
2023/05/28 03:25:08;;;;;;;3.87;1.48;;;15.90;46.50;;;;;;2314485;54;20983;-68
2023/05/28 03:27:34;;;;;;;3.22;1.45;;;15.90;46.50;;;;;;2315020;54;21507;-67
2023/05/28 03:30:01;;;;;;;4.18;1.80;;;15.90;46.40;;;;;;2314033;54;20992;-71
2023/05/28 03:32:27;;;;;;;4.22;1.60;;;15.90;46.40;;;;;;2554830;54;20991;-68
2023/05/28 03:34:54;;;;;;;4.40;1.90;;;15.80;47.00;;;;;;2554029;54;21018;-71
2023/05/28 03:37:20;;;;;;;5.05;1.85;;;15.80;46.50;;;;;;2314226;54;21038;-71
2023/05/28 03:39:47;;;;;;;5.45;2.35;;;15.80;46.60;;;;;;2313652;54;20970;-69
2023/05/28 03:42:17;;;;;;;3.83;1.80;;;15.70;46.60;;;;;;2314709;54;21022;-71
2023/05/28 03:44:43;;;;;;;4.22;2.05;;;15.70;46.60;;;;;;2554212;53;21440;-69
2023/05/28 03:47:13;;;;;;;4.22;1.75;;;15.70;46.80;;;;;;2314692;54;25228;-69
2023/05/28 03:49:39;;;;;;;4.07;1.77;;;15.60;46.90;;;;;;2313954;54;21038;-70
2023/05/28 03:52:07;;;;;;;3.58;1.83;;;15.60;47.40;;;;;;2555080;53;21022;-71
2023/05/28 03:54:34;;;;;;;4.87;2.12;;;15.60;46.80;;;;;;2315011;54;20999;-68
2023/05/28 03:57:02;;;;;;;3.22;1.60;;;15.60;46.90;;;;;;2315332;54;20967;-68
2023/05/28 03:59:29;;;;;;;3.62;1.80;;;15.60;47.10;;;;;;2314631;54;20947;-68
2023/05/28 04:01:56;;;;;;;4.07;1.83;;;15.50;47.00;;;;;;2314114;54;20995;-68
2023/05/28 04:04:22;;;;;;;5.45;2.40;;;15.50;47.10;;;;;;2314686;54;21503;-68
2023/05/28 04:06:49;;;;;;;4.35;2.10;;;15.50;47.20;;;;;;2314236;54;21019;-72
2023/05/28 04:09:15;;;;;;;6.47;2.50;;;15.50;47.30;;;;;;2555001;53;20967;-69
2023/05/28 04:11:42;;;;;;;4.82;2.30;;;15.50;47.30;;;;;;2554126;53;20900;-70
2023/05/28 04:14:09;;;;;;;3.60;1.70;;;15.50;47.40;;;;;;2554617;53;21012;-71
2023/05/28 04:16:35;;;;;;;4.15;2.03;;;15.50;47.40;;;;;;2315235;54;20967;-67
2023/05/28 04:19:03;;;;;;;3.92;1.95;;;15.50;47.40;;;;;;2313843;54;20939;-70
2023/05/28 04:21:30;;;;;;;4.68;2.05;;;15.40;47.40;;;;;;2554941;53;20979;-68
2023/05/28 04:23:57;;;;;;;5.53;2.30;;;15.40;47.40;;;;;;2313924;54;21503;-69
2023/05/28 04:26:23;;;;;;;4.40;2.12;;;15.40;47.60;;;;;;2314820;54;21488;-68
2023/05/28 04:28:50;;;;;;;4.20;1.98;;;15.50;47.80;;;;;;2314068;54;20987;-70
2023/05/28 04:31:17;;;;;;;2.83;1.40;;;15.40;47.70;;;;;;2315193;54;21023;-70
2023/05/28 04:33:46;;;;;;;4.37;2.10;;;15.40;47.70;;;;;;2554688;54;20930;-69
2023/05/28 04:36:15;;;;;;;4.37;2.10;;;15.40;47.70;;;;;;2314535;54;20987;-67
2023/05/28 04:38:41;;;;;;;5.62;1.95;;;15.40;47.80;;;;;;2314396;54;21059;-69
2023/05/28 04:41:14;;;;;;;5.10;2.00;;;15.40;48.00;;;;;;2554244;53;20959;-71
2023/05/28 04:43:41;;;;;;;4.82;2.42;;;15.40;48.30;;;;;;2314734;54;20975;-70
2023/05/28 04:46:08;;;;;;;4.22;2.10;;;15.40;48.30;;;;;;2314466;54;21738;-71
2023/05/28 04:48:36;;;;;;;3.78;1.92;;;15.40;48.30;;;;;;2555260;53;20982;-68
2023/05/28 04:51:05;;;;;;;4.60;1.73;;;15.40;48.40;;;;;;2314218;54;21000;-69
2023/05/28 04:53:33;;;;;;;3.53;1.80;;;15.40;48.40;;;;;;2555082;53;20943;-70
2023/05/28 04:56:00;;;;;;;4.55;2.30;;;15.40;48.40;;;;;;2314104;54;21775;-68
2023/05/28 04:58:29;;;;;;;4.93;1.92;;;15.40;48.50;;;;;;2314656;54;21014;-69
2023/05/28 05:00:55;;;;;;;6.18;2.53;;;15.50;48.70;;;;;;2554417;53;20951;-67
2023/05/28 05:03:22;;;;;;;5.05;1.90;;;15.50;48.70;;;;;;2554830;53;20939;-70
2023/05/28 05:05:48;;;;;;;4.00;2.08;;;15.50;48.70;;;;;;2316003;54;20997;-68
2023/05/28 05:08:16;;;;;;;5.80;2.78;;;15.50;48.70;;;;;;2552257;53;20989;-70
2023/05/28 05:10:42;;;;;;;4.37;2.10;;;15.50;48.80;;;;;;2554851;53;21030;-69
2023/05/28 05:13:10;;;;;;;5.93;2.75;;;15.60;49.00;;;;;;2314162;54;21002;-68
2023/05/28 05:15:40;;;;;;;5.30;2.55;;;15.60;49.20;;;;;;2314121;54;21432;-68
2023/05/28 05:18:07;;;;;;;6.15;2.75;;;15.70;49.40;;;;;;2314244;54;21569;-71
2023/05/28 05:20:33;;;;;;;5.28;2.70;;;15.60;49.40;;;;;;2314388;54;21432;-68
2023/05/28 05:22:59;;;;;;;6.15;2.97;;;15.70;49.60;;;;;;2313954;54;20955;-68
2023/05/28 05:25:26;;;;;;;5.12;2.25;;;15.70;49.60;;;;;;2313958;54;20951;-68
2023/05/28 05:27:52;;;;;;;4.57;2.12;;;15.80;49.70;;;;;;2314157;54;20939;-68
2023/05/28 05:30:18;;;;;;;4.00;2.03;;;15.80;49.70;;;;;;2316268;54;21021;-67
2023/05/28 05:32:44;;;;;;;5.22;2.40;;;15.90;49.80;;;;;;2298616;54;21004;-68
2023/05/28 05:35:11;;;;;;;4.70;1.92;;;15.90;49.70;;;;;;2552110;53;20967;-69
2023/05/28 05:37:38;;;;;;;3.05;1.60;;;15.90;49.60;;;;;;2553068;53;21059;-68
2023/05/28 05:40:05;;;;;;;3.83;1.83;;;16.00;49.60;;;;;;2313720;54;21030;-68
2023/05/28 05:42:31;;;;;;;6.43;2.00;;;16.00;49.70;;;;;;2554806;53;20999;-70
2023/05/28 05:44:58;;;;;;;4.90;2.25;;;16.10;49.80;;;;;;2313884;54;20943;-68
2023/05/28 05:47:24;;;;;;;4.82;2.10;;;16.10;49.70;;;;;;2314350;54;21807;-69
2023/05/28 05:49:51;;;;;;;3.80;1.92;;;16.20;49.80;;;;;;2553579;54;21389;-71
2023/05/28 05:52:17;;;;;;;4.30;2.30;;;16.20;49.80;;;;;;2314544;54;20995;-66
2023/05/28 05:54:43;;;;;;;4.10;2.15;;;16.20;49.70;;;;;;2314137;54;21405;-66
2023/05/28 05:57:10;;;;;;;5.45;2.20;;;16.30;49.80;;;;;;2312414;54;20934;-71
2023/05/28 05:59:39;;;;;;;4.00;2.20;;;16.30;49.80;;;;;;2539657;53;20949;-70
2023/05/28 06:02:06;;;;;;;4.78;2.20;;;16.40;49.90;;;;;;2313422;54;20955;-69
2023/05/28 06:04:33;;;;;;;4.40;2.12;;;16.50;49.90;;;;;;2554631;53;20959;-68
2023/05/28 06:07:04;;;;;;;6.12;2.12;;;16.50;49.90;;;;;;2554304;54;21484;-69
2023/05/28 06:09:31;;;;;;;5.75;2.40;;;16.50;49.90;;;;;;2314948;54;21476;-68
2023/05/28 06:11:58;;;;;;;4.43;2.12;;;16.60;49.90;;;;;;2553906;53;20979;-68
2023/05/28 06:14:26;;;;;;;4.12;1.83;;;16.60;49.90;;;;;;2314915;54;21330;-69
2023/05/28 06:16:52;;;;;;;4.72;2.03;;;16.60;49.90;;;;;;2314149;54;21428;-68
2023/05/28 06:19:19;;;;;;;4.95;2.30;;;16.70;50.00;;;;;;2318107;54;21043;-68
2023/05/28 06:21:45;;;;;;;4.35;2.35;;;16.80;50.10;;;;;;2314771;54;20990;-69
2023/05/28 06:24:15;;;;;;;5.07;2.12;;;16.80;50.30;;;;;;2312893;53;21480;-68
2023/05/28 06:26:41;;;;;;;6.80;2.28;;;16.90;50.50;;;;;;2316612;54;21007;-68
2023/05/28 06:29:09;;;;;;;4.10;2.08;;;17.00;50.60;;;;;;2554744;53;21002;-69
2023/05/28 06:31:37;;;;;;;5.32;2.90;;;17.00;50.60;;;;;;2318676;55;21486;-71
2023/05/28 06:34:04;;;;;;;4.37;2.22;;;17.10;50.60;;;;;;2529852;53;21037;-68
2023/05/28 06:36:30;;;;;;;3.97;2.15;;;17.10;50.60;;;;;;2314309;53;21017;-74
2023/05/28 06:38:57;;;;;;;6.25;2.33;;;17.20;50.60;;;;;;2553656;54;21974;-70
2023/05/28 06:41:25;;;;;;;3.25;1.77;;;17.30;50.80;;;;;;2550109;53;21497;-68
2023/05/28 06:43:52;;;;;;;6.00;2.58;;;17.30;51.40;;;;;;2553874;53;21427;-69
2023/05/28 06:46:21;;;;;;;5.60;3.12;;;17.40;50.90;;;;;;2555285;53;20975;-68
2023/05/28 06:48:47;;;;;;;6.32;2.67;;;17.50;51.10;;;;;;2314624;54;21795;-68
2023/05/28 06:51:16;;;;;;;4.90;2.40;;;17.60;51.20;;;;;;2554466;53;20987;-69
2023/05/28 06:53:43;;;;;;;4.32;2.17;;;17.60;51.20;;;;;;2314132;54;21028;-68
2023/05/28 06:56:14;;;;;;;5.00;2.70;;;17.70;51.20;;;;;;2314006;54;20986;-69
2023/05/28 06:58:40;;;;;;;4.20;2.30;;;17.80;51.20;;;;;;2553265;53;20965;-69
2023/05/28 07:01:07;;;;;;;5.35;2.30;;;17.90;51.20;;;;;;2548569;53;21004;-70
2023/05/28 07:03:35;;;;;;;5.75;2.33;;;18.00;51.20;;;;;;2554863;53;20942;-70
2023/05/28 07:06:01;;;;;;;4.53;2.10;;;18.10;51.30;;;;;;2554055;53;21018;-71
2023/05/28 07:08:27;;;;;;;4.97;2.25;;;18.10;51.20;;;;;;2554561;54;21100;-74
2023/05/28 07:10:54;;;;;;;5.68;2.87;;;18.20;51.20;;;;;;2548585;53;20999;-70
2023/05/28 07:13:21;;;;;;;5.00;2.25;;;18.30;51.20;;;;;;2554828;53;20984;-69
2023/05/28 07:15:47;;;;;;;5.43;2.92;;;18.40;51.30;;;;;;2553395;53;20943;-70
2023/05/28 07:18:16;;;;;;;5.10;2.37;;;18.50;51.50;;;;;;2554650;53;20931;-70
2023/05/28 07:20:42;;;;;;;5.47;2.17;;;18.60;51.50;;;;;;2552069;53;21714;-72
2023/05/28 07:23:11;;;;;;;6.10;2.40;;;18.70;51.50;;;;;;2549752;53;20983;-69
2023/05/28 07:25:41;;;;;;;4.20;1.95;;;18.80;51.40;;;;;;2555081;53;21409;-70
2023/05/28 07:28:08;;;;;;;5.40;2.30;;;18.90;51.50;;;;;;2554233;53;20963;-71
2023/05/28 07:30:43;;;;;;;5.70;2.15;;;18.90;51.40;;;;;;2550753;54;20963;-72
2023/05/28 07:33:09;;;;;;;;;;;19.00;51.50;;;;;;2558315;53;21293;-73
2023/05/28 07:35:36;;;;;;;4.82;2.00;;;19.20;51.50;;;;;;2555097;53;20123;-73
2023/05/28 07:38:03;;;;;;;4.80;2.08;;;19.30;51.20;;;;;;2553677;53;20979;-72
2023/05/28 07:40:30;;;;;;;5.82;2.30;;;19.30;51.10;;;;;;2555417;53;20991;-71
2023/05/28 07:42:59;;;;;;;4.80;2.20;;;19.40;51.20;;;;;;2554369;53;20951;-70
2023/05/28 07:45:29;;;;;;;3.80;2.00;;;19.50;51.30;;;;;;2553987;53;21039;-71
2023/05/28 07:47:56;;;;;;;3.58;1.83;;;19.60;51.30;;;;;;2554469;53;20955;-71
2023/05/28 07:50:23;;;;;;;4.78;2.20;;;19.70;51.30;;;;;;2554223;53;20975;-72
2023/05/28 07:52:50;;;;;;;5.57;2.22;;;19.80;51.40;;;;;;2314484;54;20974;-69
2023/05/28 07:55:17;;;;;;;4.70;2.35;;;19.90;51.30;;;;;;2554442;53;20967;-70
2023/05/28 07:57:43;;;;;;;4.47;2.20;;;20.00;51.30;;;;;;2554411;54;21304;-69
2023/05/28 08:00:12;;;;;;;5.68;2.05;;;20.10;51.30;;;;;;2554317;53;20935;-69
2023/05/28 08:02:38;;;;;;;4.70;2.20;;;20.20;51.30;;;;;;2314969;54;20963;-68
2023/05/28 08:05:05;;;;;;;4.25;2.03;;;20.30;51.20;;;;;;2314158;54;21037;-70
2023/05/28 08:07:32;;;;;;;4.70;2.20;;;20.30;51.00;;;;;;2555100;53;20950;-70
2023/05/28 08:09:58;;;;;;;5.60;2.03;;;20.50;51.10;;;;;;2313169;54;21006;-67
2023/05/28 08:12:26;;;;;;;4.65;2.25;;;20.50;51.00;;;;;;2554605;53;20951;-72
2023/05/28 08:14:52;;;;;;;5.70;2.17;;;20.60;50.90;;;;;;2314429;54;21377;-70
2023/05/28 08:17:21;;;;;;;4.90;2.47;;;20.70;50.70;;;;;;2554694;53;20955;-71
2023/05/28 08:19:47;;;;;;;5.37;2.12;;;20.80;50.70;;;;;;2554892;53;20935;-69
2023/05/28 08:22:21;;;;;;;5.03;2.00;;;20.90;50.80;;;;;;2314758;54;20987;-70
2023/05/28 08:24:49;;;;;;;6.43;2.12;;;21.00;50.70;;;;;;2554086;54;21007;-69
2023/05/28 08:27:15;;;;;;;4.62;2.25;;;21.10;50.70;;;;;;2554661;53;21736;-70
2023/05/28 08:29:41;;;;;;;4.70;2.35;;;21.20;50.60;;;;;;2555231;53;21014;-71
2023/05/28 08:32:08;;;;;;;4.40;2.10;;;21.20;50.60;;;;;;2314269;54;21551;-75
2023/05/28 08:34:38;;;;;;;5.18;2.25;;;21.30;50.70;;;;;;2554997;53;21440;-71
2023/05/28 08:37:13;;;;;;;5.07;2.12;;;21.40;50.80;;;;;;2542261;54;20901;-71
2023/05/28 08:39:39;;;;;;;5.22;2.10;;;21.50;50.70;;;;;;2548259;53;20961;-69
2023/05/28 08:42:06;;;;;;;5.65;2.22;;;21.60;50.70;;;;;;2548053;54;21008;-70
2023/05/28 08:44:33;;;;;;;5.85;2.37;;;21.70;50.80;;;;;;2310201;55;20969;-70
2023/05/28 08:47:00;;;;;;;5.50;2.05;;;21.80;50.90;;;;;;2547495;54;21490;-70
2023/05/28 08:49:32;;;;;;;4.93;1.98;;;21.90;50.70;;;;;;2548209;53;21090;-72
2023/05/28 08:52:00;;;;;;;4.47;2.10;;;22.00;50.50;;;;;;2546540;54;21792;-72
2023/05/28 08:54:26;;;;;;;4.85;2.12;;;22.10;50.30;;;;;;2310804;54;21481;-70
2023/05/28 08:56:53;;;;;;;3.30;1.65;;;22.20;50.10;;;;;;2547777;53;21293;-71
2023/05/28 08:59:19;;;;;;;5.22;1.95;;;22.30;50.00;;;;;;2309315;55;20913;-72
2023/05/28 09:01:46;;;;;;;5.60;1.92;;;22.30;50.00;;;;;;2548231;53;21380;-72
2023/05/28 09:04:12;;;;;;;4.20;2.08;;;22.40;49.90;;;;;;2546437;54;21021;-70
2023/05/28 09:06:38;;;;;;;5.28;2.25;;;22.50;49.70;;;;;;2310695;54;21035;-73
2023/05/28 09:09:09;;;;;;;4.95;2.40;;;22.60;49.60;;;;;;2309130;55;20953;-70
2023/05/28 09:11:36;;;;;;;6.18;2.17;;;22.70;49.80;;;;;;2310156;55;20984;-71
2023/05/28 09:14:11;;;;;;;5.90;2.08;;;22.70;49.80;;;;;;2547916;53;21008;-71
2023/05/28 09:16:40;;;;;;;4.32;2.22;;;22.80;49.60;;;;;;2548922;54;21186;-70
2023/05/28 09:19:07;;;;;;;3.78;1.73;;;22.90;49.60;;;;;;2548076;54;20956;-71
2023/05/28 09:21:33;;;;;;;3.97;1.98;;;23.00;49.50;;;;;;2309848;54;21005;-72
2023/05/28 09:24:00;;;;;;;4.22;2.08;;;23.10;49.40;;;;;;2547809;54;21390;-69
2023/05/28 09:26:31;;;;;;;4.95;2.20;;;23.20;49.40;;;;;;2548436;53;20973;-71
2023/05/28 09:28:58;;;;;;;5.95;2.00;;;23.30;49.40;;;;;;2547921;53;21023;-72
2023/05/28 09:31:32;;;;;;;5.57;2.30;;;23.30;49.40;;;;;;2548511;53;20949;-70
2023/05/28 09:34:08;;;;;;;4.15;1.70;;;23.50;49.20;;;;;;2548015;54;21226;-70
2023/05/28 09:36:36;;;;;;;5.00;2.10;;;23.60;49.30;;;;;;2548876;53;20957;-71
2023/05/28 09:39:07;;;;;;;4.93;1.85;;;23.60;49.30;;;;;;2547771;54;21430;-71
2023/05/28 09:41:34;;;;;;;4.90;1.92;;;23.80;49.30;;;;;;2548637;53;20925;-71
2023/05/28 09:44:02;;;;;;;5.20;2.03;;;23.80;49.10;;;;;;2547942;54;20977;-71
2023/05/28 09:46:32;;;;;;;6.15;2.08;;;23.90;49.00;;;;;;2548000;53;20933;-72
2023/05/28 09:48:59;;;;;;;4.53;1.90;;;24.00;48.70;;;;;;2547825;53;20949;-73
2023/05/28 09:51:31;;;;;;;4.72;2.12;;;24.10;48.60;;;;;;2548512;54;20949;-70
2023/05/28 09:54:03;;;;;;;5.65;2.10;;;24.20;48.30;;;;;;2309252;54;20973;-70
2023/05/28 09:56:31;;;;;;;5.03;2.33;;;24.30;48.20;;;;;;2548938;53;21922;-71
2023/05/28 09:58:58;;;;;;;5.05;2.10;;;24.30;47.90;;;;;;2540342;54;20944;-69
2023/05/28 10:01:28;;;;;;;5.12;1.92;;;24.40;47.90;;;;;;2545797;54;20968;-71
2023/05/28 10:04:07;;;;;;;3.40;1.80;;;24.40;47.80;;;;;;2308505;54;21506;-70
2023/05/28 10:06:34;;;;;;;5.28;2.30;;;24.50;47.70;;;;;;2309448;54;20981;-72
2023/05/28 10:09:08;;;;;;;3.55;1.70;;;24.60;47.60;;;;;;2547943;54;20993;-71
2023/05/28 10:11:42;;;;;;;4.40;2.05;;;24.70;47.50;;;;;;2309696;55;21824;-71
2023/05/28 10:14:08;;;;;;;5.20;2.08;;;24.80;47.70;;;;;;2547470;53;20968;-70
2023/05/28 10:16:34;;;;;;;5.10;2.10;;;24.80;47.70;;;;;;2308826;54;20989;-71
2023/05/28 10:19:01;;;;;;;3.72;1.90;;;24.90;47.70;;;;;;2547352;54;21003;-70
2023/05/28 10:21:29;;;;;;;4.18;1.98;;;25.00;47.70;;;;;;2547240;53;20993;-71
2023/05/28 10:23:56;;;;;;;4.22;1.85;;;25.00;47.50;;;;;;2547112;54;20917;-70
2023/05/28 10:26:23;;;;;;;3.92;1.83;;;25.20;47.60;;;;;;2538040;53;20933;-69
2023/05/28 10:28:56;;;;;;;5.28;2.55;;;25.20;47.70;;;;;;2309274;54;20992;-74
2023/05/28 10:31:22;;;;;;;4.55;1.90;;;25.30;47.30;;;;;;2303747;55;21008;-70
2023/05/28 10:33:49;;;;;;;4.57;1.90;;;25.40;47.20;;;;;;2547974;54;20972;-71
2023/05/28 10:36:16;;;;;;;5.60;2.20;;;25.50;47.00;;;;;;2548047;54;21913;-73
2023/05/28 10:39:45;;;;;;;5.25;2.12;;;25.50;46.80;;;;;;2548363;53;20965;-69
2023/05/28 10:42:16;;;;;;;4.22;1.90;;;25.60;46.10;;;;;;2309744;54;21018;-73
2023/05/28 10:45:07;;;;;;;4.60;1.98;;;25.70;46.30;;;;;;2544336;53;20951;-70
2023/05/28 10:47:37;;;;;;;4.40;2.30;;;25.70;46.10;;;;;;2545040;54;20925;-70
2023/05/28 10:50:14;;;;;;;4.62;2.03;;;25.80;46.00;;;;;;2334916;53;21054;-71
2023/05/28 10:52:50;;;;;;;3.20;1.77;;;25.90;45.70;;;;;;2547348;53;20961;-71
2023/05/28 10:55:17;;;;;;;4.95;1.80;;;25.90;45.70;;;;;;2528527;54;20950;-71
2023/05/28 10:57:45;;;;;;;4.20;1.65;;;26.00;45.40;;;;;;2283656;54;21021;-70
2023/05/28 11:00:17;;;;;;;4.35;1.83;;;26.00;45.30;;;;;;2528539;54;20959;-72
2023/05/28 11:02:44;;;;;;;4.10;1.92;;;26.00;45.20;;;;;;2555014;53;20991;-70
2023/05/28 11:05:11;;;;;;;4.80;2.05;;;26.10;45.00;;;;;;2312241;54;21760;-70
2023/05/28 11:07:40;;;;;;;6.07;2.10;;;26.10;44.70;;;;;;2477863;53;2321931;-71
2023/05/28 11:10:16;;;;;;;6.65;3.47;;;26.20;44.40;;;;;;2304023;54;21871;-70
2023/05/28 11:12:45;;;;;;;5.78;2.53;;;26.20;44.30;;;;;;2550107;53;20968;-72
2023/05/28 11:15:12;;;;;;;6.72;2.55;;;26.30;44.30;;;;;;2553924;53;20987;-72
2023/05/28 11:17:49;;;;;;;5.55;2.22;;;26.30;44.00;;;;;;2554918;53;20955;-72
2023/05/28 11:20:31;;;;;;;4.72;2.08;;;26.40;43.90;;;;;;2552926;53;20959;-70
2023/05/28 11:23:14;;;;;;;4.03;1.58;;;26.40;43.80;;;;;;2314864;54;20979;-72
2023/05/28 11:25:45;;;;;;;4.45;1.80;;;26.40;43.20;;;;;;2554561;53;21050;-71
2023/05/28 11:28:14;;;;;;;;;;;26.50;43.40;;;;;;2557959;53;21527;-71
2023/05/28 11:30:43;;;;;;;3.95;1.52;;;26.60;43.60;;;;;;2554867;54;20120;-70
2023/05/28 11:33:14;;;;;;;4.75;2.28;;;26.60;43.30;;;;;;2554568;54;20967;-71
2023/05/28 11:35:44;;;;;;;5.50;1.90;;;26.60;43.00;;;;;;2554820;53;20939;-70
2023/05/28 11:38:14;;;;;;;4.00;2.15;;;26.70;43.00;;;;;;2552350;53;21090;-71
2023/05/28 11:40:41;;;;;;;4.28;1.83;;;26.70;42.80;;;;;;2550149;53;21018;-70
2023/05/28 11:43:07;;;;;;;5.53;1.98;;;26.70;42.80;;;;;;2554528;54;21417;-69
2023/05/28 11:45:37;;;;;;;3.78;1.92;;;26.80;42.70;;;;;;2555571;53;20980;-70
2023/05/28 11:48:09;;;;;;;5.15;2.20;;;26.80;42.10;;;;;;2549629;53;20955;-74
2023/05/28 11:50:37;;;;;;;5.00;2.15;;;26.80;42.10;;;;;;2554600;53;20974;-71
2023/05/28 11:53:05;;;;;;;5.15;2.03;;;26.90;41.70;;;;;;2555446;53;21023;-70
2023/05/28 11:55:33;;;;;;;4.78;2.03;;;26.90;41.60;;;;;;2555264;53;22033;-71
2023/05/28 11:58:02;;;;;;;3.85;2.33;;;27.00;41.30;;;;;;2553910;53;20971;-70
2023/05/28 12:00:37;;;;;;;4.85;1.77;;;27.00;41.20;;;;;;2554513;53;20995;-72
2023/05/28 12:03:04;;;;;;;3.80;1.60;;;27.00;41.00;;;;;;2554876;53;21496;-71
2023/05/28 12:05:39;;;;;;;4.35;1.77;;;27.10;41.20;;;;;;2314923;54;20971;-71
2023/05/28 12:08:05;;;;;;;4.03;1.80;;;27.10;40.90;;;;;;2554757;53;21886;-71
2023/05/28 12:10:34;;;;;;;5.07;2.20;;;27.10;41.00;;;;;;2554560;53;21022;-72
2023/05/28 12:13:02;;;;;;;3.42;1.70;;;27.20;40.70;;;;;;2313927;54;21793;-70
2023/05/28 12:15:29;;;;;;;6.03;1.67;;;27.20;40.50;;;;;;2554563;53;20994;-73
2023/05/28 12:17:58;;;;;;;4.45;1.92;;;27.30;40.50;;;;;;2554290;53;20995;-71
2023/05/28 12:20:37;;;;;;;3.87;2.03;;;27.30;40.50;;;;;;2310121;54;20963;-72
2023/05/28 12:23:11;;;;;;;4.10;1.77;;;27.40;40.20;;;;;;2555062;53;20919;-71
2023/05/28 12:25:48;;;;;;;3.97;1.85;;;27.40;40.30;;;;;;2313617;54;20966;-71
2023/05/28 12:28:16;;;;;;;4.15;1.95;;;27.40;39.90;;;;;;2553834;53;20946;-73
2023/05/28 12:30:43;;;;;;;4.40;2.12;;;27.50;40.20;;;;;;2314835;53;20917;-71
2023/05/28 12:33:12;;;;;;;3.45;1.65;;;27.50;40.00;;;;;;2312417;54;21026;-71
2023/05/28 12:35:41;;;;;;;3.83;1.83;;;27.60;39.80;;;;;;2309725;54;21850;-74
2023/05/28 12:38:08;;;;;;;3.78;1.50;;;27.60;39.90;;;;;;2315986;54;20966;-71
2023/05/28 12:40:34;;;;;;;4.80;1.80;;;27.70;39.80;;;;;;2550970;53;20938;-73
2023/05/28 12:43:01;;;;;;;3.95;1.90;;;27.70;39.60;;;;;;2551882;53;20939;-72
2023/05/28 12:45:28;;;;;;;4.07;2.03;;;27.70;39.60;;;;;;2554690;53;20942;-69
2023/05/28 12:47:56;;;;;;;4.65;1.70;;;27.80;40.20;;;;;;2314658;54;20943;-72
2023/05/28 12:50:23;;;;;;;4.45;1.70;;;27.80;40.20;;;;;;2549548;53;20932;-69
2023/05/28 12:52:50;;;;;;;3.90;2.05;;;27.90;39.60;;;;;;2315089;54;20939;-73